sensor_id;sensor_type;location;lat;lon;timestamp;temperature;humidity
16666;DHT22;8446;50.998;6.250;2022-08-02T00:00:53;13.50;99.90
16666;DHT22;8446;50.998;6.250;2022-08-02T00:03:19;13.50;99.90
16666;DHT22;8446;50.998;6.250;2022-08-02T00:05:46;13.60;99.90
16666;DHT22;8446;50.998;6.250;2022-08-02T00:08:14;13.10;99.90
16666;DHT22;8446;50.998;6.250;2022-08-02T00:10:41;13.30;99.90
16666;DHT22;8446;50.998;6.250;2022-08-02T00:13:08;13.70;99.90
16666;DHT22;8446;50.998;6.250;2022-08-02T00:15:35;13.80;99.90
16666;DHT22;8446;50.998;6.250;2022-08-02T00:18:02;13.90;99.90
16666;DHT22;8446;50.998;6.250;2022-08-02T00:20:29;14.00;99.90
16666;DHT22;8446;50.998;6.250;2022-08-02T00:22:56;13.90;99.90
16666;DHT22;8446;50.998;6.250;2022-08-02T00:25:24;13.80;99.90
16666;DHT22;8446;50.998;6.250;2022-08-02T00:27:51;13.60;99.90
16666;DHT22;8446;50.998;6.250;2022-08-02T00:30:17;13.70;99.90
16666;DHT22;8446;50.998;6.250;2022-08-02T00:32:44;13.70;99.90
16666;DHT22;8446;50.998;6.250;2022-08-02T00:35:11;13.60;99.90
16666;DHT22;8446;50.998;6.250;2022-08-02T00:37:39;13.40;99.90
16666;DHT22;8446;50.998;6.250;2022-08-02T00:40:07;13.40;99.90
16666;DHT22;8446;50.998;6.250;2022-08-02T00:42:35;13.40;99.90
16666;DHT22;8446;50.998;6.250;2022-08-02T00:45:03;13.40;99.90
16666;DHT22;8446;50.998;6.250;2022-08-02T00:47:30;13.50;99.90
16666;DHT22;8446;50.998;6.250;2022-08-02T00:49:57;13.60;99.90
16666;DHT22;8446;50.998;6.250;2022-08-02T00:52:23;13.60;99.90
16666;DHT22;8446;50.998;6.250;2022-08-02T00:54:50;13.80;99.90
16666;DHT22;8446;50.998;6.250;2022-08-02T00:57:17;13.90;99.90
16666;DHT22;8446;50.998;6.250;2022-08-02T00:59:45;13.90;99.90
16666;DHT22;8446;50.998;6.250;2022-08-02T01:02:13;13.80;99.90
16666;DHT22;8446;50.998;6.250;2022-08-02T01:04:40;14.00;99.90
16666;DHT22;8446;50.998;6.250;2022-08-02T01:07:07;14.00;99.90
16666;DHT22;8446;50.998;6.250;2022-08-02T01:09:33;13.90;99.90
16666;DHT22;8446;50.998;6.250;2022-08-02T01:12:00;13.70;99.90
16666;DHT22;8446;50.998;6.250;2022-08-02T01:14:27;14.00;99.90
16666;DHT22;8446;50.998;6.250;2022-08-02T01:17:00;13.90;99.90
16666;DHT22;8446;50.998;6.250;2022-08-02T01:19:36;14.10;99.90
16666;DHT22;8446;50.998;6.250;2022-08-02T01:22:24;13.90;99.90
16666;DHT22;8446;50.998;6.250;2022-08-02T01:25:09;13.90;99.90
16666;DHT22;8446;50.998;6.250;2022-08-02T01:27:45;14.10;99.90
16666;DHT22;8446;50.998;6.250;2022-08-02T01:30:18;14.00;99.90
16666;DHT22;8446;50.998;6.250;2022-08-02T01:32:49;13.50;99.90
16666;DHT22;8446;50.998;6.250;2022-08-02T01:35:22;13.30;99.90
16666;DHT22;8446;50.998;6.250;2022-08-02T01:37:55;13.30;99.90
16666;DHT22;8446;50.998;6.250;2022-08-02T01:40:27;13.00;99.90
16666;DHT22;8446;50.998;6.250;2022-08-02T01:42:55;13.30;99.90
16666;DHT22;8446;50.998;6.250;2022-08-02T01:45:27;13.60;99.90
16666;DHT22;8446;50.998;6.250;2022-08-02T01:47:55;13.70;99.90
16666;DHT22;8446;50.998;6.250;2022-08-02T01:50:25;13.80;99.90
16666;DHT22;8446;50.998;6.250;2022-08-02T01:52:56;13.80;99.90
16666;DHT22;8446;50.998;6.250;2022-08-02T01:55:26;13.60;99.90
16666;DHT22;8446;50.998;6.250;2022-08-02T01:57:56;13.40;99.90
16666;DHT22;8446;50.998;6.250;2022-08-02T02:00:28;13.10;99.90
16666;DHT22;8446;50.998;6.250;2022-08-02T02:02:57;13.30;99.90
16666;DHT22;8446;50.998;6.250;2022-08-02T02:05:27;13.50;99.90
16666;DHT22;8446;50.998;6.250;2022-08-02T02:07:57;13.60;99.90
16666;DHT22;8446;50.998;6.250;2022-08-02T02:10:28;13.60;99.90
16666;DHT22;8446;50.998;6.250;2022-08-02T02:13:04;13.60;99.90
16666;DHT22;8446;50.998;6.250;2022-08-02T02:15:34;13.70;99.90
16666;DHT22;8446;50.998;6.250;2022-08-02T02:18:02;13.60;99.90
16666;DHT22;8446;50.998;6.250;2022-08-02T02:20:30;13.30;99.90
16666;DHT22;8446;50.998;6.250;2022-08-02T02:22:58;13.40;99.90
16666;DHT22;8446;50.998;6.250;2022-08-02T02:25:25;13.50;99.90
16666;DHT22;8446;50.998;6.250;2022-08-02T02:27:55;13.30;99.90
16666;DHT22;8446;50.998;6.250;2022-08-02T02:30:26;13.40;99.90
16666;DHT22;8446;50.998;6.250;2022-08-02T02:32:57;13.30;99.90
16666;DHT22;8446;50.998;6.250;2022-08-02T02:35:27;13.30;99.90
16666;DHT22;8446;50.998;6.250;2022-08-02T02:37:56;13.30;99.90
16666;DHT22;8446;50.998;6.250;2022-08-02T02:40:26;13.40;99.90
16666;DHT22;8446;50.998;6.250;2022-08-02T02:42:54;13.20;99.90
16666;DHT22;8446;50.998;6.250;2022-08-02T02:45:23;13.20;99.90
16666;DHT22;8446;50.998;6.250;2022-08-02T02:47:51;13.30;99.90
16666;DHT22;8446;50.998;6.250;2022-08-02T02:50:21;13.30;99.90
16666;DHT22;8446;50.998;6.250;2022-08-02T02:52:50;13.30;99.90
16666;DHT22;8446;50.998;6.250;2022-08-02T02:55:18;13.20;99.90
16666;DHT22;8446;50.998;6.250;2022-08-02T02:57:44;13.20;99.90
16666;DHT22;8446;50.998;6.250;2022-08-02T03:00:12;13.10;99.90
16666;DHT22;8446;50.998;6.250;2022-08-02T03:02:42;13.10;99.90
16666;DHT22;8446;50.998;6.250;2022-08-02T03:05:10;13.10;99.90
16666;DHT22;8446;50.998;6.250;2022-08-02T03:07:39;13.10;99.90
16666;DHT22;8446;50.998;6.250;2022-08-02T03:10:07;13.10;99.90
16666;DHT22;8446;50.998;6.250;2022-08-02T03:12:34;13.00;99.90
16666;DHT22;8446;50.998;6.250;2022-08-02T03:15:04;12.90;99.90
16666;DHT22;8446;50.998;6.250;2022-08-02T03:17:38;12.80;99.90
16666;DHT22;8446;50.998;6.250;2022-08-02T03:20:09;12.80;99.90
16666;DHT22;8446;50.998;6.250;2022-08-02T03:22:36;12.80;99.90
16666;DHT22;8446;50.998;6.250;2022-08-02T03:25:05;12.50;99.90
16666;DHT22;8446;50.998;6.250;2022-08-02T03:27:32;12.50;99.90
16666;DHT22;8446;50.998;6.250;2022-08-02T03:29:59;12.50;99.90
16666;DHT22;8446;50.998;6.250;2022-08-02T03:32:26;12.60;99.90
16666;DHT22;8446;50.998;6.250;2022-08-02T03:34:53;12.70;99.90
16666;DHT22;8446;50.998;6.250;2022-08-02T03:37:20;12.50;99.90
16666;DHT22;8446;50.998;6.250;2022-08-02T03:39:48;12.70;99.90
16666;DHT22;8446;50.998;6.250;2022-08-02T03:42:16;12.60;99.90
16666;DHT22;8446;50.998;6.250;2022-08-02T03:44:44;12.50;99.90
16666;DHT22;8446;50.998;6.250;2022-08-02T03:47:12;12.30;99.90
16666;DHT22;8446;50.998;6.250;2022-08-02T03:49:39;12.30;99.90
16666;DHT22;8446;50.998;6.250;2022-08-02T03:52:07;12.40;99.90
16666;DHT22;8446;50.998;6.250;2022-08-02T03:54:34;12.30;99.90
16666;DHT22;8446;50.998;6.250;2022-08-02T03:57:01;12.40;99.90
16666;DHT22;8446;50.998;6.250;2022-08-02T03:59:39;12.40;99.90
16666;DHT22;8446;50.998;6.250;2022-08-02T04:02:06;12.40;99.90
16666;DHT22;8446;50.998;6.250;2022-08-02T04:04:33;12.60;99.90
16666;DHT22;8446;50.998;6.250;2022-08-02T04:07:00;12.80;99.90
16666;DHT22;8446;50.998;6.250;2022-08-02T04:09:27;12.70;99.90
16666;DHT22;8446;50.998;6.250;2022-08-02T04:11:53;12.40;99.90
16666;DHT22;8446;50.998;6.250;2022-08-02T04:14:20;12.50;99.90
16666;DHT22;8446;50.998;6.250;2022-08-02T04:16:52;12.60;99.90
16666;DHT22;8446;50.998;6.250;2022-08-02T04:19:25;12.70;99.90
16666;DHT22;8446;50.998;6.250;2022-08-02T04:21:54;12.70;99.90
16666;DHT22;8446;50.998;6.250;2022-08-02T04:24:25;12.70;99.90
16666;DHT22;8446;50.998;6.250;2022-08-02T04:26:54;12.60;99.90
16666;DHT22;8446;50.998;6.250;2022-08-02T04:29:23;12.70;99.90
16666;DHT22;8446;50.998;6.250;2022-08-02T04:31:52;12.60;99.90
16666;DHT22;8446;50.998;6.250;2022-08-02T04:34:19;12.40;99.90
16666;DHT22;8446;50.998;6.250;2022-08-02T04:36:47;12.40;99.90
16666;DHT22;8446;50.998;6.250;2022-08-02T04:39:14;12.20;99.90
16666;DHT22;8446;50.998;6.250;2022-08-02T04:41:43;12.20;99.90
16666;DHT22;8446;50.998;6.250;2022-08-02T04:44:10;12.40;99.90
16666;DHT22;8446;50.998;6.250;2022-08-02T04:46:38;12.50;99.90
16666;DHT22;8446;50.998;6.250;2022-08-02T04:49:06;12.80;99.90
16666;DHT22;8446;50.998;6.250;2022-08-02T04:51:34;13.00;99.90
16666;DHT22;8446;50.998;6.250;2022-08-02T04:54:01;13.30;99.90
16666;DHT22;8446;50.998;6.250;2022-08-02T04:56:27;13.50;99.90
16666;DHT22;8446;50.998;6.250;2022-08-02T04:58:54;13.70;99.90
16666;DHT22;8446;50.998;6.250;2022-08-02T05:01:21;13.70;99.90
16666;DHT22;8446;50.998;6.250;2022-08-02T05:03:48;13.80;99.90
16666;DHT22;8446;50.998;6.250;2022-08-02T05:06:16;14.00;99.90
16666;DHT22;8446;50.998;6.250;2022-08-02T05:08:44;14.20;99.90
16666;DHT22;8446;50.998;6.250;2022-08-02T05:11:11;14.50;99.90
16666;DHT22;8446;50.998;6.250;2022-08-02T05:13:39;14.60;99.90
16666;DHT22;8446;50.998;6.250;2022-08-02T05:16:06;14.80;99.90
16666;DHT22;8446;50.998;6.250;2022-08-02T05:18:33;14.80;99.90
16666;DHT22;8446;50.998;6.250;2022-08-02T05:21:00;14.90;99.90
16666;DHT22;8446;50.998;6.250;2022-08-02T05:23:28;15.00;99.90
16666;DHT22;8446;50.998;6.250;2022-08-02T05:25:55;15.10;99.90
16666;DHT22;8446;50.998;6.250;2022-08-02T05:28:21;15.10;99.90
16666;DHT22;8446;50.998;6.250;2022-08-02T05:30:49;15.40;99.90
16666;DHT22;8446;50.998;6.250;2022-08-02T05:33:16;15.40;99.90
16666;DHT22;8446;50.998;6.250;2022-08-02T05:35:43;15.50;99.90
16666;DHT22;8446;50.998;6.250;2022-08-02T05:38:10;15.70;99.90
16666;DHT22;8446;50.998;6.250;2022-08-02T05:40:38;15.80;99.90
16666;DHT22;8446;50.998;6.250;2022-08-02T05:43:10;15.80;99.90
16666;DHT22;8446;50.998;6.250;2022-08-02T05:45:37;16.00;99.90
16666;DHT22;8446;50.998;6.250;2022-08-02T05:48:04;16.10;99.90
16666;DHT22;8446;50.998;6.250;2022-08-02T05:50:33;16.20;99.90
16666;DHT22;8446;50.998;6.250;2022-08-02T05:53:03;16.30;99.90
16666;DHT22;8446;50.998;6.250;2022-08-02T05:55:37;16.50;99.90
16666;DHT22;8446;50.998;6.250;2022-08-02T05:58:13;16.60;99.90
16666;DHT22;8446;50.998;6.250;2022-08-02T06:00:44;16.80;99.90
16666;DHT22;8446;50.998;6.250;2022-08-02T06:03:17;16.90;99.90
16666;DHT22;8446;50.998;6.250;2022-08-02T06:05:56;17.10;99.90
16666;DHT22;8446;50.998;6.250;2022-08-02T06:08:30;17.30;99.90
16666;DHT22;8446;50.998;6.250;2022-08-02T06:11:00;17.40;99.90
16666;DHT22;8446;50.998;6.250;2022-08-02T06:13:29;17.60;99.90
16666;DHT22;8446;50.998;6.250;2022-08-02T06:15:56;17.70;99.90
16666;DHT22;8446;50.998;6.250;2022-08-02T06:18:26;17.70;99.90
16666;DHT22;8446;50.998;6.250;2022-08-02T06:20:55;17.80;99.90
16666;DHT22;8446;50.998;6.250;2022-08-02T06:23:22;18.00;99.90
16666;DHT22;8446;50.998;6.250;2022-08-02T06:25:49;18.10;99.90
16666;DHT22;8446;50.998;6.250;2022-08-02T06:28:17;18.20;99.90
16666;DHT22;8446;50.998;6.250;2022-08-02T06:30:46;18.50;99.90
16666;DHT22;8446;50.998;6.250;2022-08-02T06:33:13;18.70;99.90
16666;DHT22;8446;50.998;6.250;2022-08-02T06:35:44;18.80;99.90
16666;DHT22;8446;50.998;6.250;2022-08-02T06:38:16;19.00;99.90
16666;DHT22;8446;50.998;6.250;2022-08-02T06:40:47;19.30;99.90
16666;DHT22;8446;50.998;6.250;2022-08-02T06:43:22;19.40;99.90
16666;DHT22;8446;50.998;6.250;2022-08-02T06:45:53;19.60;99.90
16666;DHT22;8446;50.998;6.250;2022-08-02T06:48:20;19.70;99.90
16666;DHT22;8446;50.998;6.250;2022-08-02T06:50:47;19.70;99.90
16666;DHT22;8446;50.998;6.250;2022-08-02T06:53:14;20.00;99.90
16666;DHT22;8446;50.998;6.250;2022-08-02T06:55:41;20.20;99.90
16666;DHT22;8446;50.998;6.250;2022-08-02T06:58:07;20.20;99.90
16666;DHT22;8446;50.998;6.250;2022-08-02T07:00:34;20.20;99.90
16666;DHT22;8446;50.998;6.250;2022-08-02T07:03:03;20.30;99.90
16666;DHT22;8446;50.998;6.250;2022-08-02T07:05:30;20.50;99.90
16666;DHT22;8446;50.998;6.250;2022-08-02T07:07:57;20.60;99.90
16666;DHT22;8446;50.998;6.250;2022-08-02T07:10:24;20.70;99.90
16666;DHT22;8446;50.998;6.250;2022-08-02T07:12:50;20.90;99.90
16666;DHT22;8446;50.998;6.250;2022-08-02T07:15:17;20.90;99.90
16666;DHT22;8446;50.998;6.250;2022-08-02T07:17:44;21.10;99.90
16666;DHT22;8446;50.998;6.250;2022-08-02T07:20:12;21.20;99.90
16666;DHT22;8446;50.998;6.250;2022-08-02T07:22:39;21.40;99.90
16666;DHT22;8446;50.998;6.250;2022-08-02T07:25:07;21.70;99.90
16666;DHT22;8446;50.998;6.250;2022-08-02T07:27:34;21.70;99.90
16666;DHT22;8446;50.998;6.250;2022-08-02T07:30:01;21.80;99.90
16666;DHT22;8446;50.998;6.250;2022-08-02T07:32:30;21.90;99.90
16666;DHT22;8446;50.998;6.250;2022-08-02T07:34:59;22.30;99.90
16666;DHT22;8446;50.998;6.250;2022-08-02T07:37:29;22.60;99.90
16666;DHT22;8446;50.998;6.250;2022-08-02T07:39:56;23.10;99.90
16666;DHT22;8446;50.998;6.250;2022-08-02T07:42:23;23.10;99.90
16666;DHT22;8446;50.998;6.250;2022-08-02T07:44:50;23.20;99.90
16666;DHT22;8446;50.998;6.250;2022-08-02T07:47:17;23.20;99.90
16666;DHT22;8446;50.998;6.250;2022-08-02T07:49:44;23.70;99.90
16666;DHT22;8446;50.998;6.250;2022-08-02T07:52:11;23.70;99.90
16666;DHT22;8446;50.998;6.250;2022-08-02T07:54:39;23.70;99.90
16666;DHT22;8446;50.998;6.250;2022-08-02T07:57:06;23.90;99.90
16666;DHT22;8446;50.998;6.250;2022-08-02T07:59:33;24.10;99.90
16666;DHT22;8446;50.998;6.250;2022-08-02T08:01:59;24.10;99.90
16666;DHT22;8446;50.998;6.250;2022-08-02T08:04:26;23.60;99.90
16666;DHT22;8446;50.998;6.250;2022-08-02T08:06:53;23.70;99.90
16666;DHT22;8446;50.998;6.250;2022-08-02T08:09:20;24.00;99.90
16666;DHT22;8446;50.998;6.250;2022-08-02T08:11:48;24.00;99.90
16666;DHT22;8446;50.998;6.250;2022-08-02T08:14:15;23.90;99.90
16666;DHT22;8446;50.998;6.250;2022-08-02T08:16:42;23.70;99.90
16666;DHT22;8446;50.998;6.250;2022-08-02T08:19:09;23.70;99.90
16666;DHT22;8446;50.998;6.250;2022-08-02T08:21:35;23.80;99.90
16666;DHT22;8446;50.998;6.250;2022-08-02T08:24:03;24.10;99.90
16666;DHT22;8446;50.998;6.250;2022-08-02T08:26:30;24.30;99.90
16666;DHT22;8446;50.998;6.250;2022-08-02T08:28:58;24.10;99.90
16666;DHT22;8446;50.998;6.250;2022-08-02T08:31:26;24.00;99.90
16666;DHT22;8446;50.998;6.250;2022-08-02T08:33:53;24.20;99.90
16666;DHT22;8446;50.998;6.250;2022-08-02T08:36:21;24.30;99.90
16666;DHT22;8446;50.998;6.250;2022-08-02T08:38:48;24.30;99.90
16666;DHT22;8446;50.998;6.250;2022-08-02T08:41:15;24.30;99.90
16666;DHT22;8446;50.998;6.250;2022-08-02T08:43:42;24.40;99.90
16666;DHT22;8446;50.998;6.250;2022-08-02T08:46:20;24.70;99.90
16666;DHT22;8446;50.998;6.250;2022-08-02T08:48:52;24.70;99.90
16666;DHT22;8446;50.998;6.250;2022-08-02T08:51:20;24.70;99.90
16666;DHT22;8446;50.998;6.250;2022-08-02T08:53:48;24.80;99.90
16666;DHT22;8446;50.998;6.250;2022-08-02T08:56:17;24.90;99.90
16666;DHT22;8446;50.998;6.250;2022-08-02T08:58:45;24.90;99.90
16666;DHT22;8446;50.998;6.250;2022-08-02T09:01:14;24.90;99.90
16666;DHT22;8446;50.998;6.250;2022-08-02T09:03:41;25.20;99.90
16666;DHT22;8446;50.998;6.250;2022-08-02T09:06:08;25.10;99.90
16666;DHT22;8446;50.998;6.250;2022-08-02T09:08:35;25.10;99.90
16666;DHT22;8446;50.998;6.250;2022-08-02T09:11:11;25.40;99.90
16666;DHT22;8446;50.998;6.250;2022-08-02T09:13:48;25.20;99.90
16666;DHT22;8446;50.998;6.250;2022-08-02T09:16:26;25.20;99.90
16666;DHT22;8446;50.998;6.250;2022-08-02T09:18:53;25.20;99.90
16666;DHT22;8446;50.998;6.250;2022-08-02T09:21:20;25.40;99.90
16666;DHT22;8446;50.998;6.250;2022-08-02T09:23:49;25.60;99.90
16666;DHT22;8446;50.998;6.250;2022-08-02T09:26:17;25.70;99.90
16666;DHT22;8446;50.998;6.250;2022-08-02T09:28:46;25.50;99.90
16666;DHT22;8446;50.998;6.250;2022-08-02T09:31:17;25.70;99.90
16666;DHT22;8446;50.998;6.250;2022-08-02T09:33:51;25.90;99.90
16666;DHT22;8446;50.998;6.250;2022-08-02T09:36:19;26.20;99.90
16666;DHT22;8446;50.998;6.250;2022-08-02T09:38:54;25.80;99.90
16666;DHT22;8446;50.998;6.250;2022-08-02T09:41:23;25.90;99.90
16666;DHT22;8446;50.998;6.250;2022-08-02T09:43:50;26.10;99.90
16666;DHT22;8446;50.998;6.250;2022-08-02T09:46:20;26.20;99.90
16666;DHT22;8446;50.998;6.250;2022-08-02T09:48:52;26.40;99.90
16666;DHT22;8446;50.998;6.250;2022-08-02T09:51:21;26.60;99.90
16666;DHT22;8446;50.998;6.250;2022-08-02T09:53:50;26.70;99.90
16666;DHT22;8446;50.998;6.250;2022-08-02T09:56:18;26.50;99.90
16666;DHT22;8446;50.998;6.250;2022-08-02T09:58:46;26.00;99.90
16666;DHT22;8446;50.998;6.250;2022-08-02T10:01:13;25.90;99.90
16666;DHT22;8446;50.998;6.250;2022-08-02T10:03:59;26.50;99.90
16666;DHT22;8446;50.998;6.250;2022-08-02T10:06:27;26.40;99.90
16666;DHT22;8446;50.998;6.250;2022-08-02T10:08:54;25.90;99.90
16666;DHT22;8446;50.998;6.250;2022-08-02T10:11:22;26.30;99.90
16666;DHT22;8446;50.998;6.250;2022-08-02T10:13:50;26.20;99.90
16666;DHT22;8446;50.998;6.250;2022-08-02T10:16:19;26.30;99.90
16666;DHT22;8446;50.998;6.250;2022-08-02T10:18:48;26.40;99.90
16666;DHT22;8446;50.998;6.250;2022-08-02T10:21:19;26.70;99.90
16666;DHT22;8446;50.998;6.250;2022-08-02T10:23:48;26.70;99.90
16666;DHT22;8446;50.998;6.250;2022-08-02T10:26:18;27.00;99.90
16666;DHT22;8446;50.998;6.250;2022-08-02T10:28:46;26.90;99.90
16666;DHT22;8446;50.998;6.250;2022-08-02T10:31:18;26.70;99.90
16666;DHT22;8446;50.998;6.250;2022-08-02T10:33:47;26.70;99.90
16666;DHT22;8446;50.998;6.250;2022-08-02T10:36:17;26.80;99.90
16666;DHT22;8446;50.998;6.250;2022-08-02T10:38:44;26.90;99.90
16666;DHT22;8446;50.998;6.250;2022-08-02T10:41:12;26.60;99.90
16666;DHT22;8446;50.998;6.250;2022-08-02T10:43:41;26.80;99.90
16666;DHT22;8446;50.998;6.250;2022-08-02T10:46:29;26.70;99.90
16666;DHT22;8446;50.998;6.250;2022-08-02T10:49:10;26.70;99.90
16666;DHT22;8446;50.998;6.250;2022-08-02T10:52:04;27.20;99.90
16666;DHT22;8446;50.998;6.250;2022-08-02T10:54:33;27.30;99.90
16666;DHT22;8446;50.998;6.250;2022-08-02T10:57:01;27.80;99.90
16666;DHT22;8446;50.998;6.250;2022-08-02T10:59:29;27.90;99.90
16666;DHT22;8446;50.998;6.250;2022-08-02T11:01:58;28.00;99.90
16666;DHT22;8446;50.998;6.250;2022-08-02T11:04:29;27.80;99.90
16666;DHT22;8446;50.998;6.250;2022-08-02T11:07:12;27.70;99.90
16666;DHT22;8446;50.998;6.250;2022-08-02T11:09:40;27.50;99.90
16666;DHT22;8446;50.998;6.250;2022-08-02T11:12:08;27.80;99.90
16666;DHT22;8446;50.998;6.250;2022-08-02T11:14:36;27.60;99.90
16666;DHT22;8446;50.998;6.250;2022-08-02T11:17:11;27.40;99.90
16666;DHT22;8446;50.998;6.250;2022-08-02T11:20:15;27.10;99.90
16666;DHT22;8446;50.998;6.250;2022-08-02T11:22:45;27.80;99.90
16666;DHT22;8446;50.998;6.250;2022-08-02T11:25:36;27.20;99.90
16666;DHT22;8446;50.998;6.250;2022-08-02T11:28:12;27.20;99.90
16666;DHT22;8446;50.998;6.250;2022-08-02T11:30:40;27.10;99.90
16666;DHT22;8446;50.998;6.250;2022-08-02T11:33:07;27.50;99.90
16666;DHT22;8446;50.998;6.250;2022-08-02T11:35:36;27.00;99.90
16666;DHT22;8446;50.998;6.250;2022-08-02T11:38:15;26.60;99.90
16666;DHT22;8446;50.998;6.250;2022-08-02T11:40:43;26.80;99.90
16666;DHT22;8446;50.998;6.250;2022-08-02T11:43:19;27.30;99.90
16666;DHT22;8446;50.998;6.250;2022-08-02T11:45:46;27.30;99.90
16666;DHT22;8446;50.998;6.250;2022-08-02T11:48:13;27.50;99.90
16666;DHT22;8446;50.998;6.250;2022-08-02T11:50:40;27.40;99.90
16666;DHT22;8446;50.998;6.250;2022-08-02T11:53:15;27.20;99.90
16666;DHT22;8446;50.998;6.250;2022-08-02T11:55:42;27.10;99.90
16666;DHT22;8446;50.998;6.250;2022-08-02T11:58:09;27.10;99.90
16666;DHT22;8446;50.998;6.250;2022-08-02T12:00:37;27.00;99.90
16666;DHT22;8446;50.998;6.250;2022-08-02T12:03:05;26.80;99.90
16666;DHT22;8446;50.998;6.250;2022-08-02T12:05:32;26.60;99.90
16666;DHT22;8446;50.998;6.250;2022-08-02T12:07:59;26.70;99.90
16666;DHT22;8446;50.998;6.250;2022-08-02T12:10:27;27.10;99.90
16666;DHT22;8446;50.998;6.250;2022-08-02T12:12:56;27.30;99.90
16666;DHT22;8446;50.998;6.250;2022-08-02T12:15:32;27.50;99.90
16666;DHT22;8446;50.998;6.250;2022-08-02T12:17:59;28.30;99.90
16666;DHT22;8446;50.998;6.250;2022-08-02T12:20:44;28.40;99.90
16666;DHT22;8446;50.998;6.250;2022-08-02T12:23:12;28.60;99.90
16666;DHT22;8446;50.998;6.250;2022-08-02T12:25:40;29.00;99.90
16666;DHT22;8446;50.998;6.250;2022-08-02T12:28:15;28.40;99.90
16666;DHT22;8446;50.998;6.250;2022-08-02T12:30:49;28.00;99.90
16666;DHT22;8446;50.998;6.250;2022-08-02T12:33:16;28.00;99.90
16666;DHT22;8446;50.998;6.250;2022-08-02T12:35:43;28.00;99.90
16666;DHT22;8446;50.998;6.250;2022-08-02T12:38:10;27.50;99.90
16666;DHT22;8446;50.998;6.250;2022-08-02T12:40:39;27.50;99.90
16666;DHT22;8446;50.998;6.250;2022-08-02T12:43:14;27.60;99.90
16666;DHT22;8446;50.998;6.250;2022-08-02T12:45:47;27.50;99.90
16666;DHT22;8446;50.998;6.250;2022-08-02T12:48:14;27.30;99.90
16666;DHT22;8446;50.998;6.250;2022-08-02T12:50:42;27.50;99.90
16666;DHT22;8446;50.998;6.250;2022-08-02T12:53:10;27.80;99.90
16666;DHT22;8446;50.998;6.250;2022-08-02T12:55:53;27.70;99.90
16666;DHT22;8446;50.998;6.250;2022-08-02T12:58:20;28.00;99.90
16666;DHT22;8446;50.998;6.250;2022-08-02T13:00:51;28.00;99.90
16666;DHT22;8446;50.998;6.250;2022-08-02T13:03:19;28.40;99.90
16666;DHT22;8446;50.998;6.250;2022-08-02T13:05:46;28.80;99.90
16666;DHT22;8446;50.998;6.250;2022-08-02T13:08:13;28.60;99.90
16666;DHT22;8446;50.998;6.250;2022-08-02T13:10:40;28.60;99.90
16666;DHT22;8446;50.998;6.250;2022-08-02T13:13:08;28.70;99.90
16666;DHT22;8446;50.998;6.250;2022-08-02T13:15:35;29.00;99.20
16666;DHT22;8446;50.998;6.250;2022-08-02T13:18:03;28.70;99.90
16666;DHT22;8446;50.998;6.250;2022-08-02T13:20:30;28.70;99.30
16666;DHT22;8446;50.998;6.250;2022-08-02T13:22:56;28.70;99.90
16666;DHT22;8446;50.998;6.250;2022-08-02T13:25:23;28.50;99.10
16666;DHT22;8446;50.998;6.250;2022-08-02T13:27:50;28.40;98.90
16666;DHT22;8446;50.998;6.250;2022-08-02T13:30:19;28.80;99.10
16666;DHT22;8446;50.998;6.250;2022-08-02T13:32:46;28.60;98.80
16666;DHT22;8446;50.998;6.250;2022-08-02T13:35:12;28.80;98.20
16666;DHT22;8446;50.998;6.250;2022-08-02T13:37:40;29.00;97.60
16666;DHT22;8446;50.998;6.250;2022-08-02T13:40:08;29.00;97.80
16666;DHT22;8446;50.998;6.250;2022-08-02T13:42:35;29.00;97.10
16666;DHT22;8446;50.998;6.250;2022-08-02T13:45:02;28.90;97.60
16666;DHT22;8446;50.998;6.250;2022-08-02T13:47:30;29.30;97.20
16666;DHT22;8446;50.998;6.250;2022-08-02T13:49:57;29.40;96.80
16666;DHT22;8446;50.998;6.250;2022-08-02T13:52:24;29.60;95.90
16666;DHT22;8446;50.998;6.250;2022-08-02T13:54:51;29.60;95.70
16666;DHT22;8446;50.998;6.250;2022-08-02T13:57:17;29.30;96.60
16666;DHT22;8446;50.998;6.250;2022-08-02T13:59:44;29.50;95.90
16666;DHT22;8446;50.998;6.250;2022-08-02T14:02:11;29.40;94.50
16666;DHT22;8446;50.998;6.250;2022-08-02T14:04:39;29.50;95.70
16666;DHT22;8446;50.998;6.250;2022-08-02T14:07:06;29.40;95.50
16666;DHT22;8446;50.998;6.250;2022-08-02T14:09:33;29.40;96.90
16666;DHT22;8446;50.998;6.250;2022-08-02T14:12:01;29.30;96.00
16666;DHT22;8446;50.998;6.250;2022-08-02T14:14:28;29.50;95.90
16666;DHT22;8446;50.998;6.250;2022-08-02T14:16:55;29.20;95.30
16666;DHT22;8446;50.998;6.250;2022-08-02T14:19:22;29.30;96.20
16666;DHT22;8446;50.998;6.250;2022-08-02T14:21:50;29.60;95.90
16666;DHT22;8446;50.998;6.250;2022-08-02T14:24:19;29.70;95.60
16666;DHT22;8446;50.998;6.250;2022-08-02T14:26:47;30.00;96.10
16666;DHT22;8446;50.998;6.250;2022-08-02T14:29:15;29.80;96.30
16666;DHT22;8446;50.998;6.250;2022-08-02T14:31:42;29.60;95.70
16666;DHT22;8446;50.998;6.250;2022-08-02T14:34:08;29.70;95.70
16666;DHT22;8446;50.998;6.250;2022-08-02T14:36:36;29.70;96.00
16666;DHT22;8446;50.998;6.250;2022-08-02T14:39:04;29.70;94.10
16666;DHT22;8446;50.998;6.250;2022-08-02T14:41:31;29.60;95.00
16666;DHT22;8446;50.998;6.250;2022-08-02T14:44:01;29.80;95.00
16666;DHT22;8446;50.998;6.250;2022-08-02T14:46:33;29.70;95.40
16666;DHT22;8446;50.998;6.250;2022-08-02T14:49:01;29.70;94.50
16666;DHT22;8446;50.998;6.250;2022-08-02T14:51:29;30.00;94.40
16666;DHT22;8446;50.998;6.250;2022-08-02T14:53:56;29.90;93.80
16666;DHT22;8446;50.998;6.250;2022-08-02T14:56:24;30.00;92.40
16666;DHT22;8446;50.998;6.250;2022-08-02T14:58:51;29.90;93.30
16666;DHT22;8446;50.998;6.250;2022-08-02T15:01:18;29.60;93.70
16666;DHT22;8446;50.998;6.250;2022-08-02T15:03:45;29.60;93.40
16666;DHT22;8446;50.998;6.250;2022-08-02T15:06:12;29.50;93.60
16666;DHT22;8446;50.998;6.250;2022-08-02T15:08:39;29.60;94.20
16666;DHT22;8446;50.998;6.250;2022-08-02T15:11:06;29.90;95.20
16666;DHT22;8446;50.998;6.250;2022-08-02T15:13:34;29.80;93.80
16666;DHT22;8446;50.998;6.250;2022-08-02T15:16:01;29.90;94.00
16666;DHT22;8446;50.998;6.250;2022-08-02T15:18:28;30.00;95.60
16666;DHT22;8446;50.998;6.250;2022-08-02T15:20:54;30.00;93.80
16666;DHT22;8446;50.998;6.250;2022-08-02T15:23:23;29.90;93.40
16666;DHT22;8446;50.998;6.250;2022-08-02T15:25:50;30.00;93.40
16666;DHT22;8446;50.998;6.250;2022-08-02T15:28:17;29.80;93.10
16666;DHT22;8446;50.998;6.250;2022-08-02T15:30:45;29.60;93.80
16666;DHT22;8446;50.998;6.250;2022-08-02T15:33:12;30.30;93.00
16666;DHT22;8446;50.998;6.250;2022-08-02T15:35:39;30.20;93.00
16666;DHT22;8446;50.998;6.250;2022-08-02T15:38:06;30.00;92.90
16666;DHT22;8446;50.998;6.250;2022-08-02T15:40:33;30.00;93.10
16666;DHT22;8446;50.998;6.250;2022-08-02T15:42:59;30.20;92.70
16666;DHT22;8446;50.998;6.250;2022-08-02T15:45:26;30.10;92.10
16666;DHT22;8446;50.998;6.250;2022-08-02T15:47:54;30.30;91.90
16666;DHT22;8446;50.998;6.250;2022-08-02T15:50:21;29.90;92.30
16666;DHT22;8446;50.998;6.250;2022-08-02T15:52:48;30.10;92.10
16666;DHT22;8446;50.998;6.250;2022-08-02T15:55:15;30.00;92.00